Terminal Aerodrome Forecast
Issued by NWS Bismarck, ND

Home | Current Version | Previous Version | Graphics & Text | Print | Product List | Glossary On
Versions: 1 2 3 4 5 6 7 8 9 10 11 12 13 14 15 16 17 18 19 20 21 22 23 24 25 26 27 28 29 30 31 32
000
FTUS43 KBIS 060016 AAA
TAFBIS
TAF AMD
KBIS 060016Z 0600/0624 30022G36KT 1 1/2SM -SN BR OVC022
      TEMPO 0600/0604 3/4SM -SN BLSN OVC010
     FM060600 30029G41KT 2SM -SN BLSN OVC010
     FM061000 30029G41KT 1SM -SN BLSN OVC008
     FM062000 30020G30KT 4SM -SN BLSN OVC015=

USA.gov is the U.S. government's official web portal to all federal, state and local government web resources and services.